CSN3158 ZSAM-ZJHK
Flight info
| Callsign | CSN3158 |
|---|---|
| Flight time | 0h 44m |
| Altitude | 36100 |
| Route | NUSPA9Z NUSPA W597 IKATA A470 BEBEM R200 BIGRO G221 GIVIV W605 DOMGO DOMGO9XA |
| Aircraft | A320/M-SDE3FGHIRWY/LB1 |
Departure
| Time | 2026-05-03 23:41 |
|---|---|
| Airport | Xiamen Gaoqi International Airport (ZSAM) |
Arrival
| Time | 2026-05-04 00:25 |
|---|---|
| Airport | Haikou Meilan International Airport (ZJHK) |
| Time | Latitude | Longitude | Altitude | Speed | Heading |
|---|---|---|---|---|---|
| 2026-05-03 23:12 | 24.54034 | 118.12673 | 54 ft | 0 kts | 142° |
| 2026-05-03 23:33 | 24.54036 | 118.12671 | 57 ft | 2 kts | 143° |
| 2026-05-03 23:33 | 24.54054 | 118.12663 | 52 ft | 4 kts | 220° |
| 2026-05-03 23:33 | 24.54069 | 118.12681 | 51 ft | 1 kts | 231° |
| 2026-05-03 23:34 | 24.54071 | 118.12685 | 48 ft | 0 kts | 231° |
| 2026-05-03 23:35 | 24.54063 | 118.12674 | 51 ft | 6 kts | 231° |
| 2026-05-03 23:36 | 24.54026 | 118.12622 | 54 ft | 8 kts | 231° |
| 2026-05-03 23:36 | 24.53993 | 118.12577 | 50 ft | 7 kts | 231° |
| 2026-05-03 23:36 | 24.53974 | 118.12538 | 53 ft | 5 kts | 270° |
| 2026-05-03 23:36 | 24.53994 | 118.12494 | 56 ft | 9 kts | 284° |
| 2026-05-03 23:37 | 24.53960 | 118.12422 | 56 ft | 13 kts | 231° |
| 2026-05-03 23:37 | 24.53902 | 118.12342 | 58 ft | 13 kts | 232° |
| 2026-05-03 23:37 | 24.53847 | 118.12264 | 57 ft | 16 kts | 232° |
| 2026-05-03 23:37 | 24.53780 | 118.12170 | 57 ft | 15 kts | 232° |
| 2026-05-03 23:38 | 24.53721 | 118.12088 | 55 ft | 13 kts | 231° |
| 2026-05-03 23:38 | 24.53670 | 118.12017 | 60 ft | 12 kts | 232° |
| 2026-05-03 23:38 | 24.53613 | 118.11938 | 59 ft | 14 kts | 232° |
| 2026-05-03 23:38 | 24.53554 | 118.11854 | 60 ft | 16 kts | 232° |
| 2026-05-03 23:39 | 24.53491 | 118.11767 | 58 ft | 14 kts | 231° |
| 2026-05-03 23:39 | 24.53449 | 118.11696 | 62 ft | 8 kts | 268° |
| 2026-05-03 23:39 | 24.53480 | 118.11662 | 58 ft | 6 kts | 324° |
| 2026-05-03 23:39 | 24.53512 | 118.11634 | 64 ft | 8 kts | 321° |
| 2026-05-03 23:40 | 24.53558 | 118.11604 | 60 ft | 7 kts | 353° |
| 2026-05-03 23:40 | 24.53595 | 118.11625 | 60 ft | 6 kts | 46° |
| 2026-05-03 23:40 | 24.53609 | 118.11643 | 62 ft | 0 kts | 51° |
| 2026-05-03 23:40 | 24.53632 | 118.11675 | 60 ft | 22 kts | 51° |
| 2026-05-03 23:41 | 24.53889 | 118.12035 | 56 ft | 96 kts | 52° |
| 2026-05-03 23:41 | 24.54422 | 118.12782 | 52 ft | 151 kts | 52° |
| 2026-05-03 23:41 | 24.55099 | 118.13748 | 544 ft | 159 kts | 51° |
| 2026-05-03 23:41 | 24.55768 | 118.14705 | 1236 ft | 160 kts | 52° |
| 2026-05-03 23:42 | 24.56487 | 118.15723 | 1596 ft | 182 kts | 52° |
| 2026-05-03 23:42 | 24.57322 | 118.16896 | 1927 ft | 205 kts | 52° |
| 2026-05-03 23:42 | 24.58173 | 118.18083 | 2843 ft | 189 kts | 52° |
| 2026-05-03 23:42 | 24.58964 | 118.19179 | 3686 ft | 186 kts | 51° |
| 2026-05-03 23:43 | 24.59784 | 118.20315 | 4234 ft | 197 kts | 51° |
| 2026-05-03 23:43 | 24.60665 | 118.21539 | 4926 ft | 205 kts | 51° |
| 2026-05-03 23:43 | 24.61555 | 118.22790 | 5591 ft | 212 kts | 54° |
| 2026-05-03 23:43 | 24.62155 | 118.24295 | 6190 ft | 221 kts | 80° |
| 2026-05-03 23:44 | 24.62012 | 118.26390 | 6896 ft | 230 kts | 113° |
| 2026-05-03 23:44 | 24.58597 | 118.29015 | 8638 ft | 229 kts | 187° |
| 2026-05-03 23:44 | 24.57080 | 118.28637 | 8852 ft | 220 kts | 212° |
| 2026-05-03 23:44 | 24.55909 | 118.27628 | 8901 ft | 212 kts | 234° |
| 2026-05-03 23:45 | 24.54998 | 118.26355 | 8906 ft | 212 kts | 235° |
| 2026-05-03 23:45 | 24.54085 | 118.25089 | 8918 ft | 212 kts | 234° |
| 2026-05-03 23:45 | 24.53158 | 118.23811 | 9528 ft | 213 kts | 235° |
| 2026-05-03 23:45 | 24.52239 | 118.22549 | 10369 ft | 210 kts | 235° |
| 2026-05-03 23:46 | 24.49917 | 118.19334 | 11836 ft | 230 kts | 236° |
| 2026-05-03 23:46 | 24.45298 | 118.12775 | 13048 ft | 315 kts | 234° |
| 2026-05-03 23:46 | 24.39260 | 118.04264 | 14287 ft | 372 kts | 234° |
| 2026-05-03 23:46 | 24.32839 | 117.95258 | 16711 ft | 379 kts | 234° |
| 2026-05-03 23:47 | 24.26244 | 117.86035 | 18761 ft | 390 kts | 234° |
| 2026-05-03 23:47 | 24.18682 | 117.77460 | 20416 ft | 402 kts | 227° |
| 2026-05-03 23:47 | 24.10622 | 117.68779 | 21891 ft | 411 kts | 227° |
| 2026-05-03 23:47 | 24.02357 | 117.59925 | 23223 ft | 419 kts | 227° |
| 2026-05-03 23:48 | 23.93951 | 117.50913 | 24203 ft | 427 kts | 227° |
| 2026-05-03 23:48 | 23.86180 | 117.42548 | 25056 ft | 430 kts | 231° |
| 2026-05-03 23:48 | 23.83151 | 117.40591 | 24182 ft | 461 kts | 208° |
| 2026-05-03 23:48 | 23.80496 | 117.38818 | 24829 ft | 440 kts | 225° |
| 2026-05-03 23:49 | 23.78636 | 117.36247 | 25216 ft | 430 kts | 244° |
| 2026-05-03 23:49 | 23.77895 | 117.28586 | 25931 ft | 429 kts | 271° |
| 2026-05-03 23:49 | 23.76845 | 117.15698 | 26545 ft | 433 kts | 245° |
| 2026-05-03 23:49 | 23.69268 | 117.05352 | 27098 ft | 442 kts | 229° |
| 2026-05-03 23:50 | 23.60728 | 116.95652 | 27700 ft | 442 kts | 229° |
| 2026-05-03 23:50 | 23.55096 | 116.89257 | 28181 ft | 441 kts | 229° |
| 2026-05-03 23:50 | 23.43712 | 116.76447 | 29220 ft | 441 kts | 225° |
| 2026-05-03 23:50 | 23.33931 | 116.68304 | 30052 ft | 441 kts | 221° |
| 2026-05-03 23:51 | 23.24204 | 116.60222 | 30808 ft | 440 kts | 221° |
| 2026-05-03 23:51 | 23.14499 | 116.52164 | 31539 ft | 439 kts | 221° |
| 2026-05-03 23:51 | 23.04804 | 116.44139 | 32341 ft | 437 kts | 221° |
| 2026-05-03 23:51 | 22.96078 | 116.35257 | 33141 ft | 426 kts | 244° |
| 2026-05-03 23:52 | 22.93738 | 116.23055 | 33963 ft | 422 kts | 263° |
| 2026-05-03 23:52 | 22.92383 | 116.10462 | 34804 ft | 418 kts | 263° |
| 2026-05-03 23:52 | 22.91089 | 115.98023 | 35687 ft | 413 kts | 263° |
| 2026-05-03 23:52 | 22.89801 | 115.85688 | 36108 ft | 411 kts | 263° |
| 2026-05-03 23:53 | 22.87339 | 115.61173 | 36163 ft | 409 kts | 264° |
| 2026-05-03 23:53 | 22.84852 | 115.36725 | 36100 ft | 407 kts | 263° |
| 2026-05-03 23:54 | 22.82305 | 115.12331 | 36166 ft | 408 kts | 263° |
| 2026-05-03 23:54 | 22.79752 | 114.88041 | 36123 ft | 404 kts | 263° |
| 2026-05-03 23:55 | 22.77230 | 114.63906 | 36141 ft | 403 kts | 263° |
| 2026-05-03 23:55 | 22.74967 | 114.42691 | 36023 ft | 403 kts | 247° |
| 2026-05-03 23:56 | 22.73176 | 114.40292 | 34785 ft | 428 kts | 221° |
| 2026-05-03 23:56 | 22.70414 | 114.38891 | 33463 ft | 456 kts | 199° |
| 2026-05-03 23:56 | 22.67168 | 114.38770 | 32103 ft | 483 kts | 177° |
| 2026-05-03 23:56 | 22.63940 | 114.40027 | 30827 ft | 508 kts | 155° |
| 2026-05-03 23:57 | 22.61218 | 114.42546 | 29527 ft | 527 kts | 133° |
| 2026-05-03 23:57 | 22.59409 | 114.46026 | 28183 ft | 539 kts | 111° |
| 2026-05-03 23:57 | 22.58779 | 114.49968 | 26940 ft | 543 kts | 90° |
| 2026-05-03 23:57 | 22.59422 | 114.54027 | 25759 ft | 540 kts | 69° |
| 2026-05-03 23:58 | 22.61218 | 114.57481 | 24681 ft | 532 kts | 48° |
| 2026-05-03 23:58 | 22.63968 | 114.60051 | 23659 ft | 519 kts | 26° |
| 2026-05-03 23:58 | 22.67274 | 114.61243 | 23927 ft | 481 kts | 358° |
| 2026-05-03 23:58 | 22.70373 | 114.60776 | 25575 ft | 427 kts | 332° |
| 2026-05-03 23:59 | 22.72659 | 114.59097 | 27133 ft | 376 kts | 306° |
| 2026-05-03 23:59 | 22.74123 | 114.56886 | 28234 ft | 358 kts | 296° |
| 2026-05-03 23:59 | 22.75263 | 114.54473 | 28382 ft | 362 kts | 285° |
| 2026-05-03 23:59 | 22.75811 | 114.51805 | 28517 ft | 367 kts | 272° |
| 2026-05-04 00:00 | 22.75705 | 114.49028 | 28649 ft | 373 kts | 262° |
| 2026-05-04 00:00 | 22.74941 | 114.42019 | 28990 ft | 391 kts | 263° |
| 2026-05-04 00:00 | 22.73760 | 114.29930 | 29502 ft | 413 kts | 263° |
| 2026-05-04 00:00 | 22.72459 | 114.17360 | 30059 ft | 424 kts | 263° |
| 2026-05-04 00:01 | 22.70697 | 114.04773 | 30710 ft | 424 kts | 250° |
| 2026-05-04 00:01 | 22.67576 | 113.99466 | 31143 ft | 429 kts | 231° |
| 2026-05-04 00:01 | 22.65540 | 113.97104 | 31341 ft | 429 kts | 231° |
| 2026-05-04 00:01 | 22.63512 | 113.94742 | 31541 ft | 428 kts | 231° |
| 2026-05-04 00:02 | 22.61488 | 113.92380 | 31745 ft | 427 kts | 231° |
| 2026-05-04 00:02 | 22.60344 | 113.91050 | 31856 ft | 427 kts | 231° |
| 2026-05-04 00:02 | 22.58327 | 113.88697 | 32083 ft | 426 kts | 231° |
| 2026-05-04 00:02 | 22.50673 | 113.79741 | 32904 ft | 424 kts | 231° |
| 2026-05-04 00:03 | 22.42645 | 113.70415 | 33829 ft | 422 kts | 231° |
| 2026-05-04 00:03 | 22.34670 | 113.61167 | 34647 ft | 420 kts | 232° |
| 2026-05-04 00:03 | 22.26731 | 113.51966 | 35520 ft | 417 kts | 232° |
| 2026-05-04 00:03 | 22.20388 | 113.41828 | 36200 ft | 407 kts | 251° |
| 2026-05-04 00:04 | 22.11875 | 113.19231 | 36096 ft | 407 kts | 248° |
| 2026-05-04 00:04 | 22.02525 | 112.96950 | 36218 ft | 409 kts | 249° |
| 2026-05-04 00:05 | 21.93711 | 112.74348 | 36092 ft | 409 kts | 249° |
| 2026-05-04 00:05 | 21.84582 | 112.51840 | 36223 ft | 411 kts | 249° |
| 2026-05-04 00:06 | 21.75585 | 112.29124 | 36171 ft | 414 kts | 249° |
| 2026-05-04 00:06 | 21.66508 | 112.06373 | 36157 ft | 413 kts | 249° |
| 2026-05-04 00:07 | 21.57371 | 111.83699 | 36150 ft | 415 kts | 244° |
| 2026-05-04 00:07 | 21.50068 | 111.73998 | 36143 ft | 419 kts | 233° |
| 2026-05-04 00:07 | 21.42533 | 111.64436 | 36139 ft | 419 kts | 233° |
| 2026-05-04 00:08 | 21.39178 | 111.61033 | 28038 ft | 29 kts | 280° |
| 2026-05-04 00:09 | 21.37348 | 111.59612 | 17666 ft | 558 kts | 218° |
| 2026-05-04 00:09 | 21.35104 | 111.57863 | 23071 ft | 336 kts | 218° |
| 2026-05-04 00:09 | 21.33423 | 111.56549 | 25498 ft | 278 kts | 221° |
| 2026-05-04 00:09 | 21.31991 | 111.55275 | 26397 ft | 259 kts | 229° |
| 2026-05-04 00:10 | 21.30988 | 111.53658 | 26550 ft | 269 kts | 246° |
| 2026-05-04 00:10 | 21.30199 | 111.51785 | 26674 ft | 282 kts | 246° |
| 2026-05-04 00:10 | 21.26763 | 111.44259 | 27146 ft | 331 kts | 236° |
| 2026-05-04 00:10 | 21.20155 | 111.36292 | 27618 ft | 383 kts | 230° |
| 2026-05-04 00:11 | 21.12815 | 111.27283 | 27883 ft | 421 kts | 231° |
| 2026-05-04 00:11 | 21.04951 | 111.17406 | 28053 ft | 445 kts | 231° |
| 2026-05-04 00:11 | 20.96690 | 111.07348 | 27998 ft | 453 kts | 225° |
| 2026-05-04 00:11 | 20.85517 | 111.00926 | 27843 ft | 465 kts | 207° |
| 2026-05-04 00:12 | 20.73821 | 110.95278 | 27736 ft | 464 kts | 207° |
| 2026-05-04 00:12 | 20.62055 | 110.89716 | 27777 ft | 461 kts | 207° |
| 2026-05-04 00:12 | 20.50222 | 110.84348 | 27877 ft | 458 kts | 198° |
| 2026-05-04 00:12 | 20.38299 | 110.83145 | 27958 ft | 400 kts | 188° |
| 2026-05-04 00:13 | 20.27058 | 110.82209 | 27888 ft | 406 kts | 188° |
| 2026-05-04 00:13 | 20.18398 | 110.81392 | 26868 ft | 402 kts | 214° |
| 2026-05-04 00:13 | 20.15960 | 110.79732 | 25309 ft | 425 kts | 211° |
| 2026-05-04 00:13 | 20.13186 | 110.78773 | 25087 ft | 418 kts | 189° |
| 2026-05-04 00:14 | 20.10318 | 110.78895 | 24966 ft | 408 kts | 176° |
| 2026-05-04 00:14 | 20.04276 | 110.79826 | 24255 ft | 390 kts | 176° |
| 2026-05-04 00:14 | 19.93854 | 110.79860 | 21471 ft | 361 kts | 191° |
| 2026-05-04 00:14 | 19.85780 | 110.75242 | 19508 ft | 340 kts | 244° |
| 2026-05-04 00:15 | 19.85126 | 110.65268 | 17379 ft | 337 kts | 266° |
| 2026-05-04 00:15 | 19.84976 | 110.55384 | 15606 ft | 329 kts | 267° |
| 2026-05-04 00:15 | 19.84955 | 110.45716 | 13750 ft | 322 kts | 268° |
| 2026-05-04 00:15 | 19.84952 | 110.40239 | 12182 ft | 314 kts | 268° |
| 2026-05-04 00:16 | 19.84937 | 110.33840 | 10981 ft | 314 kts | 268° |
| 2026-05-04 00:16 | 19.84919 | 110.27921 | 9998 ft | 304 kts | 269° |
| 2026-05-04 00:16 | 19.84912 | 110.25723 | 9865 ft | 292 kts | 269° |
| 2026-05-04 00:16 | 19.84902 | 110.23589 | 9592 ft | 288 kts | 269° |
| 2026-05-04 00:17 | 19.84890 | 110.21441 | 8809 ft | 291 kts | 269° |
| 2026-05-04 00:17 | 19.84879 | 110.19320 | 8330 ft | 280 kts | 269° |
| 2026-05-04 00:17 | 19.84880 | 110.17289 | 8151 ft | 270 kts | 272° |
| 2026-05-04 00:17 | 19.85119 | 110.16016 | 8065 ft | 263 kts | 292° |
| 2026-05-04 00:18 | 19.86190 | 110.14521 | 7916 ft | 253 kts | 322° |
| 2026-05-04 00:18 | 19.87828 | 110.13844 | 7468 ft | 259 kts | 354° |
| 2026-05-04 00:18 | 19.89638 | 110.13820 | 7042 ft | 261 kts | 359° |
| 2026-05-04 00:18 | 19.91466 | 110.13824 | 6620 ft | 263 kts | 359° |
| 2026-05-04 00:19 | 19.93287 | 110.14018 | 6179 ft | 266 kts | 20° |
| 2026-05-04 00:19 | 19.94763 | 110.15165 | 5621 ft | 270 kts | 54° |
| 2026-05-04 00:19 | 19.95377 | 110.17032 | 5020 ft | 269 kts | 88° |
| 2026-05-04 00:19 | 19.95328 | 110.18960 | 4650 ft | 254 kts | 93° |
| 2026-05-04 00:20 | 19.95278 | 110.20798 | 4329 ft | 246 kts | 90° |
| 2026-05-04 00:20 | 19.95280 | 110.22604 | 4003 ft | 243 kts | 89° |
| 2026-05-04 00:20 | 19.95290 | 110.24385 | 3694 ft | 239 kts | 89° |
| 2026-05-04 00:20 | 19.95299 | 110.26103 | 3395 ft | 225 kts | 90° |
| 2026-05-04 00:21 | 19.95306 | 110.27714 | 3118 ft | 212 kts | 90° |
| 2026-05-04 00:21 | 19.95312 | 110.29224 | 2878 ft | 197 kts | 89° |
| 2026-05-04 00:21 | 19.95318 | 110.30619 | 2607 ft | 180 kts | 89° |
| 2026-05-04 00:21 | 19.95323 | 110.31854 | 2450 ft | 155 kts | 89° |
| 2026-05-04 00:22 | 19.95324 | 110.32953 | 2185 ft | 144 kts | 88° |
| 2026-05-04 00:22 | 19.95322 | 110.33994 | 1875 ft | 137 kts | 89° |
| 2026-05-04 00:22 | 19.95327 | 110.34990 | 1680 ft | 133 kts | 88° |
| 2026-05-04 00:22 | 19.95331 | 110.35964 | 1503 ft | 132 kts | 88° |
| 2026-05-04 00:23 | 19.95345 | 110.36937 | 1348 ft | 131 kts | 89° |
| 2026-05-04 00:23 | 19.95355 | 110.37909 | 1214 ft | 132 kts | 89° |
| 2026-05-04 00:23 | 19.95349 | 110.38883 | 1103 ft | 132 kts | 89° |
| 2026-05-04 00:23 | 19.95344 | 110.39861 | 940 ft | 132 kts | 89° |
| 2026-05-04 00:24 | 19.95352 | 110.40840 | 820 ft | 131 kts | 89° |
| 2026-05-04 00:24 | 19.95358 | 110.41826 | 658 ft | 133 kts | 89° |
| 2026-05-04 00:24 | 19.95362 | 110.42814 | 470 ft | 133 kts | 88° |
| 2026-05-04 00:24 | 19.95373 | 110.43804 | 277 ft | 135 kts | 90° |
| 2026-05-04 00:25 | 19.95371 | 110.44797 | 117 ft | 134 kts | 89° |
| 2026-05-04 00:25 | 19.95372 | 110.45758 | 58 ft | 118 kts | 89° |
| 2026-05-04 00:25 | 19.95376 | 110.46459 | 57 ft | 70 kts | 90° |
| 2026-05-04 00:25 | 19.95378 | 110.46830 | 58 ft | 40 kts | 90° |
| 2026-05-04 00:26 | 19.95316 | 110.47060 | 59 ft | 25 kts | 117° |
| 2026-05-04 00:26 | 19.95243 | 110.47157 | 57 ft | 12 kts | 191° |
| 2026-05-04 00:26 | 19.95208 | 110.47081 | 60 ft | 14 kts | 268° |
| 2026-05-04 00:26 | 19.95206 | 110.46950 | 60 ft | 20 kts | 268° |
| 2026-05-04 00:27 | 19.95166 | 110.46865 | 59 ft | 12 kts | 200° |
| 2026-05-04 00:27 | 19.95125 | 110.46800 | 59 ft | 11 kts | 264° |
| 2026-05-04 00:27 | 19.95124 | 110.46705 | 59 ft | 19 kts | 270° |
| 2026-05-04 00:27 | 19.95123 | 110.46527 | 52 ft | 26 kts | 269° |
| 2026-05-04 00:28 | 19.95120 | 110.46368 | 58 ft | 14 kts | 256° |
| 2026-05-04 00:28 | 19.95070 | 110.46326 | 58 ft | 7 kts | 224° |
| 2026-05-04 00:28 | 19.95046 | 110.46287 | 56 ft | 6 kts | 243° |
| 2026-05-04 00:28 | 19.95028 | 110.46250 | 55 ft | 5 kts | 244° |
| 2026-05-04 00:29 | 19.95012 | 110.46215 | 52 ft | 5 kts | 243° |
| 2026-05-04 00:29 | 19.94996 | 110.46181 | 53 ft | 5 kts | 243° |
| 2026-05-04 00:29 | 19.94986 | 110.46160 | 56 ft | 0 kts | 243° |